Time,TemperatureF,DewpointF,PressureIn,WindDirection,WindDirectionDegrees,WindSpeedMPH,WindSpeedGustMPH,Humidity,HourlyPrecipIn,Conditions,Clouds,dailyrainin,SolarRadiationWatts/m^2,SoftwareType,DateUTC
2014-12-21 00:02:00,39.9,38.6,30.17,SW,234,2.3,2.3,95,0.00,CLR,SKC,0.00,0.0,WeatherDisplay:10.37,2014-12-21 06:02:00,
2014-12-21 00:07:00,39.9,38.6,30.17,SW,230,1.2,1.2,95,0.00,CLR,SKC,0.00,0.0,WeatherDisplay:10.37,2014-12-21 06:07:00,
2014-12-21 00:12:00,39.9,38.6,30.16,SW,234,0.0,0.0,95,0.00,CLR,SKC,0.00,0.0,WeatherDisplay:10.37,2014-12-21 06:12:00,
2014-12-21 00:17:00,39.8,38.5,30.16,WSW,242,3.0,3.0,95,0.00,CLR,SKC,0.00,0.0,WeatherDisplay:10.37,2014-12-21 06:17:00,
2014-12-21 00:22:00,39.9,38.6,30.16,WSW,242,2.3,2.3,95,0.00,CLR,SKC,0.00,0.0,WeatherDisplay:10.37,2014-12-21 06:22:00,
2014-12-21 00:27:00,40.0,38.7,30.16,WSW,242,0.0,0.0,95,0.00,CLR,SKC,0.00,0.0,WeatherDisplay:10.37,2014-12-21 06:27:00,
2014-12-21 00:32:00,39.9,38.6,30.16,SW,233,3.5,3.5,95,0.00,CLR,SKC,0.00,0.0,WeatherDisplay:10.37,2014-12-21 06:32:00,
2014-12-21 00:37:00,39.9,38.6,30.15,SW,236,3.5,3.5,95,0.00,CLR,SKC,0.00,0.0,WeatherDisplay:10.37,2014-12-21 06:37:00,
2014-12-21 00:42:00,40.0,38.7,30.15,SW,233,0.0,0.0,95,0.00,CLR,SKC,0.00,0.0,WeatherDisplay:10.37,2014-12-21 06:42:00,
2014-12-21 00:47:00,39.9,38.6,30.15,SW,220,4.6,4.6,95,0.00,CLR,SKC,0.00,0.0,WeatherDisplay:10.37,2014-12-21 06:47:00,
2014-12-21 00:52:00,39.9,38.6,30.15,SW,225,0.0,0.0,95,0.00,CLR,SKC,0.00,0.0,WeatherDisplay:10.37,2014-12-21 06:52:00,
2014-12-21 00:57:00,40.0,38.7,30.15,SSW,194,4.6,4.6,95,0.00,CLR,SKC,0.00,0.0,WeatherDisplay:10.37,2014-12-21 06:57:00,
2014-12-21 01:02:00,40.0,38.7,30.15,SW,235,3.5,3.5,95,0.00,CLR,SKC,0.00,0.0,WeatherDisplay:10.37,2014-12-21 07:02:00,
2014-12-21 01:07:00,40.0,38.7,30.15,SSW,208,5.8,5.8,95,0.00,CLR,SKC,0.00,0.0,WeatherDisplay:10.37,2014-12-21 07:07:00,
2014-12-21 01:12:00,40.0,38.7,30.15,SSW,209,4.0,4.0,95,0.00,CLR,SKC,0.00,0.0,WeatherDisplay:10.37,2014-12-21 07:12:00,
2014-12-21 01:17:00,39.9,38.6,30.14,WSW,247,3.5,3.5,95,0.00,CLR,SKC,0.00,0.0,WeatherDisplay:10.37,2014-12-21 07:17:00,
2014-12-21 01:22:00,39.9,38.6,30.14,SW,223,3.0,3.0,95,0.00,CLR,SKC,0.00,0.0,WeatherDisplay:10.37,2014-12-21 07:22:00,
2014-12-21 01:27:00,39.9,38.6,30.14,SSW,205,6.9,6.9,95,0.00,CLR,SKC,0.00,0.0,WeatherDisplay:10.37,2014-12-21 07:27:00,
2014-12-21 01:32:00,39.9,38.6,30.14,SW,236,3.5,3.5,95,0.00,CLR,SKC,0.00,0.0,WeatherDisplay:10.37,2014-12-21 07:32:00,
2014-12-21 01:37:00,39.9,38.6,30.14,SW,232,0.0,0.0,95,0.00,CLR,SKC,0.00,0.0,WeatherDisplay:10.37,2014-12-21 07:37:00,
2014-12-21 01:42:00,39.9,38.6,30.14,SSW,213,4.6,4.6,95,0.00,CLR,SKC,0.00,0.0,WeatherDisplay:10.37,2014-12-21 07:42:00,
2014-12-21 01:47:00,39.9,38.6,30.15,SW,231,3.5,3.5,95,0.00,CLR,SKC,0.00,0.0,WeatherDisplay:10.37,2014-12-21 07:47:00,
2014-12-21 01:52:00,39.9,38.6,30.15,SSW,210,4.6,4.6,95,0.00,CLR,SKC,0.00,0.0,WeatherDisplay:10.37,2014-12-21 07:52:00,
2014-12-21 01:57:00,39.9,38.6,30.15,SW,229,10.4,10.4,95,0.00,CLR,SKC,0.00,0.0,WeatherDisplay:10.37,2014-12-21 07:57:00,
2014-12-21 02:02:00,39.9,38.6,30.15,WSW,245,3.5,3.5,95,0.00,CLR,SKC,0.00,0.0,WeatherDisplay:10.37,2014-12-21 08:02:00,
2014-12-21 02:07:00,39.9,38.6,30.15,SSW,213,4.0,4.0,95,0.00,CLR,SKC,0.00,0.0,WeatherDisplay:10.37,2014-12-21 08:07:00,
2014-12-21 02:12:00,39.9,38.6,30.15,SW,233,4.6,4.6,95,0.00,CLR,SKC,0.00,0.0,WeatherDisplay:10.37,2014-12-21 08:12:00,
2014-12-21 02:17:00,40.0,38.7,30.14,SSW,204,3.5,3.5,95,0.00,CLR,SKC,0.00,0.0,WeatherDisplay:10.37,2014-12-21 08:17:00,
2014-12-21 02:22:00,39.9,38.6,30.14,SW,234,2.3,2.3,95,0.00,CLR,SKC,0.00,0.0,WeatherDisplay:10.37,2014-12-21 08:22:00,
2014-12-21 02:27:00,39.9,38.6,30.14,SSW,213,8.0,8.0,95,0.00,CLR,SKC,0.00,0.0,WeatherDisplay:10.37,2014-12-21 08:27:00,
2014-12-21 02:32:00,39.9,38.6,30.14,SW,215,6.9,6.9,95,0.00,CLR,SKC,0.00,0.0,WeatherDisplay:10.37,2014-12-21 08:32:00,
2014-12-21 02:37:00,39.9,38.6,30.15,SW,228,4.6,4.6,95,0.00,CLR,SKC,0.00,0.0,WeatherDisplay:10.37,2014-12-21 08:37:00,
2014-12-21 02:42:00,39.9,38.6,30.15,SW,230,7.0,7.0,95,0.00,CLR,SKC,0.00,0.0,WeatherDisplay:10.37,2014-12-21 08:42:00,
2014-12-21 02:47:00,39.9,38.6,30.15,SW,219,3.5,3.5,95,0.00,CLR,SKC,0.00,0.0,WeatherDisplay:10.37,2014-12-21 08:47:00,
2014-12-21 02:52:00,39.9,38.6,30.15,SW,219,3.5,3.5,95,0.00,CLR,SKC,0.00,0.0,WeatherDisplay:10.37,2014-12-21 08:52:00,
2014-12-21 02:57:00,39.9,38.6,30.14,SW,222,3.5,3.5,95,0.00,CLR,SKC,0.00,0.0,WeatherDisplay:10.37,2014-12-21 08:57:00,
2014-12-21 03:02:00,39.9,38.6,30.14,SSW,206,3.5,3.5,95,0.00,CLR,SKC,0.00,0.0,WeatherDisplay:10.37,2014-12-21 09:02:00,
2014-12-21 03:07:00,39.9,38.6,30.14,SW,219,3.5,3.5,95,0.00,CLR,SKC,0.00,0.0,WeatherDisplay:10.37,2014-12-21 09:07:00,
2014-12-21 03:12:00,39.9,38.6,30.14,West,260,4.6,4.6,95,0.00,CLR,SKC,0.00,0.0,WeatherDisplay:10.37,2014-12-21 09:12:00,
2014-12-21 03:17:00,39.9,38.6,30.14,SW,226,5.8,5.8,95,0.00,CLR,SKC,0.00,0.0,WeatherDisplay:10.37,2014-12-21 09:17:00,
2014-12-21 03:22:00,39.9,38.6,30.13,SW,218,3.0,3.0,95,0.00,CLR,SKC,0.00,0.0,WeatherDisplay:10.37,2014-12-21 09:22:00,
2014-12-21 03:27:00,39.8,38.5,30.13,SSW,213,0.0,0.0,95,0.00,CLR,SKC,0.00,0.0,WeatherDisplay:10.37,2014-12-21 09:27:00,
2014-12-21 03:32:00,39.9,38.6,30.13,SW,229,1.2,0.0,95,0.00,CLR,SKC,0.00,0.0,WeatherDisplay:10.37,2014-12-21 09:32:00,
2014-12-21 03:37:00,39.8,38.5,30.13,SW,229,1.2,0.0,95,0.00,CLR,SKC,0.00,0.0,WeatherDisplay:10.37,2014-12-21 09:37:00,
2014-12-21 03:43:00,39.9,38.6,30.13,SW,228,4.6,4.6,95,0.00,CLR,SKC,0.00,0.0,WeatherDisplay:10.37,2014-12-21 09:43:00,
2014-12-21 03:48:00,39.9,38.6,30.12,SW,230,3.5,3.5,95,0.00,CLR,SKC,0.00,0.0,WeatherDisplay:10.37,2014-12-21 09:48:00,
2014-12-21 03:53:00,39.9,38.6,30.12,SW,224,4.6,4.6,95,0.00,CLR,SKC,0.00,0.0,WeatherDisplay:10.37,2014-12-21 09:53:00,
2014-12-21 03:58:00,39.9,38.6,30.12,SSW,202,3.5,3.5,95,0.00,CLR,SKC,0.00,0.0,WeatherDisplay:10.37,2014-12-21 09:58:00,
2014-12-21 04:03:00,39.8,38.5,30.11,SW,223,5.0,5.0,95,0.00,CLR,SKC,0.00,0.0,WeatherDisplay:10.37,2014-12-21 10:03:00,
2014-12-21 04:08:00,39.8,38.5,30.11,SSW,213,4.6,4.6,95,0.00,CLR,SKC,0.00,0.0,WeatherDisplay:10.37,2014-12-21 10:08:00,
2014-12-21 04:13:00,39.8,38.5,30.11,SW,214,5.8,5.8,95,0.00,CLR,SKC,0.00,0.0,WeatherDisplay:10.37,2014-12-21 10:13:00,
2014-12-21 04:18:00,39.8,38.5,30.11,SW,214,4.6,4.6,95,0.00,CLR,SKC,0.00,0.0,WeatherDisplay:10.37,2014-12-21 10:18:00,
2014-12-21 04:23:00,39.8,38.5,30.11,SW,214,2.3,2.3,95,0.00,CLR,SKC,0.00,0.0,WeatherDisplay:10.37,2014-12-21 10:23:00,
2014-12-21 04:28:00,39.8,38.5,30.11,SW,217,4.0,4.0,95,0.00,CLR,SKC,0.00,0.0,WeatherDisplay:10.37,2014-12-21 10:28:00,
2014-12-21 04:33:00,39.8,38.5,30.11,SSW,200,5.8,5.8,95,0.00,CLR,SKC,0.00,0.0,WeatherDisplay:10.37,2014-12-21 10:33:00,
2014-12-21 04:38:00,39.8,38.5,30.11,SSE,168,3.5,3.5,95,0.00,CLR,SKC,0.00,0.0,WeatherDisplay:10.37,2014-12-21 10:38:00,
2014-12-21 04:43:00,39.8,38.8,30.11,WSW,238,4.6,4.6,96,0.00,CLR,SKC,0.00,0.0,WeatherDisplay:10.37,2014-12-21 10:43:00,
2014-12-21 04:48:00,39.8,38.8,30.11,SSW,207,5.8,5.8,96,0.00,CLR,SKC,0.00,0.0,WeatherDisplay:10.37,2014-12-21 10:48:00,
2014-12-21 04:53:00,39.8,38.8,30.11,SW,224,3.5,0.0,96,0.00,CLR,SKC,0.00,0.0,WeatherDisplay:10.37,2014-12-21 10:53:00,
2014-12-21 04:58:00,39.8,38.8,30.11,SW,227,3.5,3.5,96,0.00,CLR,SKC,0.00,0.0,WeatherDisplay:10.37,2014-12-21 10:58:00,
2014-12-21 05:03:00,39.7,38.7,30.11,SW,230,2.0,2.0,96,0.00,CLR,SKC,0.00,0.0,WeatherDisplay:10.37,2014-12-21 11:03:00,
2014-12-21 05:08:00,39.7,38.7,30.11,SW,230,0.0,0.0,96,0.00,CLR,SKC,0.00,0.0,WeatherDisplay:10.37,2014-12-21 11:08:00,
2014-12-21 05:13:00,39.7,38.7,30.11,SW,230,0.0,0.0,96,0.00,CLR,SKC,0.00,0.0,WeatherDisplay:10.37,2014-12-21 11:13:00,
2014-12-21 05:18:00,39.7,38.7,30.11,SW,230,1.2,0.0,96,0.00,CLR,SKC,0.00,0.0,WeatherDisplay:10.37,2014-12-21 11:18:00,